sensor_id;sensor_type;location;lat;lon;timestamp;temperature;humidity
41080;DHT22;26826;50.718;7.114;2023-07-02T00:00:19;15.80;99.90
41080;DHT22;26826;50.718;7.114;2023-07-02T00:10:20;15.80;99.90
41080;DHT22;26826;50.718;7.114;2023-07-02T00:20:20;15.80;99.90
41080;DHT22;26826;50.718;7.114;2023-07-02T00:30:21;15.90;99.90
41080;DHT22;26826;50.718;7.114;2023-07-02T00:40:22;15.80;99.90
41080;DHT22;26826;50.718;7.114;2023-07-02T00:50:23;15.70;99.90
41080;DHT22;26826;50.718;7.114;2023-07-02T01:00:23;15.60;99.90
41080;DHT22;26826;50.718;7.114;2023-07-02T01:10:24;15.40;99.90
41080;DHT22;26826;50.718;7.114;2023-07-02T01:20:25;15.30;99.90
41080;DHT22;26826;50.718;7.114;2023-07-02T01:30:27;15.10;99.90
41080;DHT22;26826;50.718;7.114;2023-07-02T01:40:28;15.10;99.90
41080;DHT22;26826;50.718;7.114;2023-07-02T01:50:28;15.00;99.90
41080;DHT22;26826;50.718;7.114;2023-07-02T02:00:29;14.80;99.90
41080;DHT22;26826;50.718;7.114;2023-07-02T02:10:29;14.90;99.90
41080;DHT22;26826;50.718;7.114;2023-07-02T02:20:30;15.00;99.90
41080;DHT22;26826;50.718;7.114;2023-07-02T02:30:31;15.00;99.90
41080;DHT22;26826;50.718;7.114;2023-07-02T02:40:31;14.90;99.90
41080;DHT22;26826;50.718;7.114;2023-07-02T02:50:32;15.10;99.90
41080;DHT22;26826;50.718;7.114;2023-07-02T03:00:32;15.10;99.90
41080;DHT22;26826;50.718;7.114;2023-07-02T03:10:33;15.10;99.90
41080;DHT22;26826;50.718;7.114;2023-07-02T03:20:33;15.10;99.90
41080;DHT22;26826;50.718;7.114;2023-07-02T03:30:34;15.20;99.90
41080;DHT22;26826;50.718;7.114;2023-07-02T03:40:34;15.00;99.90
41080;DHT22;26826;50.718;7.114;2023-07-02T03:50:35;15.00;99.90
41080;DHT22;26826;50.718;7.114;2023-07-02T04:00:35;15.00;99.90
41080;DHT22;26826;50.718;7.114;2023-07-02T04:10:36;14.90;99.90
41080;DHT22;26826;50.718;7.114;2023-07-02T04:20:37;14.90;99.90
41080;DHT22;26826;50.718;7.114;2023-07-02T04:30:38;15.20;99.90
41080;DHT22;26826;50.718;7.114;2023-07-02T04:40:39;15.30;99.90
41080;DHT22;26826;50.718;7.114;2023-07-02T04:50:42;15.30;99.90
41080;DHT22;26826;50.718;7.114;2023-07-02T05:00:42;15.50;99.90
41080;DHT22;26826;50.718;7.114;2023-07-02T05:10:43;15.60;99.90
41080;DHT22;26826;50.718;7.114;2023-07-02T05:20:43;15.80;99.90
41080;DHT22;26826;50.718;7.114;2023-07-02T05:30:44;15.90;99.90
41080;DHT22;26826;50.718;7.114;2023-07-02T05:40:45;16.10;99.90
41080;DHT22;26826;50.718;7.114;2023-07-02T05:50:46;16.30;99.90
41080;DHT22;26826;50.718;7.114;2023-07-02T06:00:46;16.50;99.90
41080;DHT22;26826;50.718;7.114;2023-07-02T06:10:49;16.70;99.90
41080;DHT22;26826;50.718;7.114;2023-07-02T06:20:50;17.00;99.90
41080;DHT22;26826;50.718;7.114;2023-07-02T06:30:51;17.20;99.90
41080;DHT22;26826;50.718;7.114;2023-07-02T06:40:51;17.40;99.90
41080;DHT22;26826;50.718;7.114;2023-07-02T06:50:52;17.60;99.90
41080;DHT22;26826;50.718;7.114;2023-07-02T07:00:52;17.90;99.90
41080;DHT22;26826;50.718;7.114;2023-07-02T07:10:53;18.20;99.90
41080;DHT22;26826;50.718;7.114;2023-07-02T07:20:53;18.40;99.90
41080;DHT22;26826;50.718;7.114;2023-07-02T07:30:54;18.60;99.90
41080;DHT22;26826;50.718;7.114;2023-07-02T07:40:54;18.60;99.90
41080;DHT22;26826;50.718;7.114;2023-07-02T07:50:55;18.80;99.90
41080;DHT22;26826;50.718;7.114;2023-07-02T08:00:55;19.40;99.90
41080;DHT22;26826;50.718;7.114;2023-07-02T08:10:56;20.60;99.90
41080;DHT22;26826;50.718;7.114;2023-07-02T08:20:56;21.10;99.90
41080;DHT22;26826;50.718;7.114;2023-07-02T08:30:57;22.30;99.90
41080;DHT22;26826;50.718;7.114;2023-07-02T08:40:57;22.50;99.90
41080;DHT22;26826;50.718;7.114;2023-07-02T08:50:58;21.90;99.30
41080;DHT22;26826;50.718;7.114;2023-07-02T09:01:09;22.00;99.90
41080;DHT22;26826;50.718;7.114;2023-07-02T09:11:12;21.60;99.90
41080;DHT22;26826;50.718;7.114;2023-07-02T09:21:13;21.50;99.90
41080;DHT22;26826;50.718;7.114;2023-07-02T09:31:13;20.90;99.90
41080;DHT22;26826;50.718;7.114;2023-07-02T09:41:14;20.40;99.90
41080;DHT22;26826;50.718;7.114;2023-07-02T09:51:14;20.60;99.90
41080;DHT22;26826;50.718;7.114;2023-07-02T10:01:15;20.50;99.90
41080;DHT22;26826;50.718;7.114;2023-07-02T10:11:16;20.80;99.90
41080;DHT22;26826;50.718;7.114;2023-07-02T10:21:17;22.30;99.90
41080;DHT22;26826;50.718;7.114;2023-07-02T10:31:19;23.60;99.90
41080;DHT22;26826;50.718;7.114;2023-07-02T10:41:25;22.00;99.90
41080;DHT22;26826;50.718;7.114;2023-07-02T10:51:26;22.20;99.90
41080;DHT22;26826;50.718;7.114;2023-07-02T11:01:31;22.20;99.90
41080;DHT22;26826;50.718;7.114;2023-07-02T11:11:31;21.10;99.90
41080;DHT22;26826;50.718;7.114;2023-07-02T11:21:32;22.70;99.90
41080;DHT22;26826;50.718;7.114;2023-07-02T11:31:33;23.80;96.80
41080;DHT22;26826;50.718;7.114;2023-07-02T11:41:37;24.20;96.50
41080;DHT22;26826;50.718;7.114;2023-07-02T11:51:42;23.30;95.30
41080;DHT22;26826;50.718;7.114;2023-07-02T12:01:48;22.70;96.30
41080;DHT22;26826;50.718;7.114;2023-07-02T12:11:49;23.80;94.80
41080;DHT22;26826;50.718;7.114;2023-07-02T12:21:49;24.50;93.70
41080;DHT22;26826;50.718;7.114;2023-07-02T12:31:50;24.20;94.60
41080;DHT22;26826;50.718;7.114;2023-07-02T12:41:50;23.70;95.20
41080;DHT22;26826;50.718;7.114;2023-07-02T12:51:51;23.90;94.80
41080;DHT22;26826;50.718;7.114;2023-07-02T13:01:51;25.60;93.40
41080;DHT22;26826;50.718;7.114;2023-07-02T13:11:52;25.00;93.60
41080;DHT22;26826;50.718;7.114;2023-07-02T13:21:52;25.00;92.90
41080;DHT22;26826;50.718;7.114;2023-07-02T13:31:53;25.20;92.10
41080;DHT22;26826;50.718;7.114;2023-07-02T13:41:53;24.50;93.30
41080;DHT22;26826;50.718;7.114;2023-07-02T13:51:54;25.20;91.80
41080;DHT22;26826;50.718;7.114;2023-07-02T14:01:54;24.50;92.80
41080;DHT22;26826;50.718;7.114;2023-07-02T14:11:55;23.80;93.10
41080;DHT22;26826;50.718;7.114;2023-07-02T14:21:55;23.90;91.70
41080;DHT22;26826;50.718;7.114;2023-07-02T14:31:56;25.20;90.40
41080;DHT22;26826;50.718;7.114;2023-07-02T14:41:57;24.40;90.90
41080;DHT22;26826;50.718;7.114;2023-07-02T14:51:57;26.20;88.10
41080;DHT22;26826;50.718;7.114;2023-07-02T15:01:58;25.10;88.80
41080;DHT22;26826;50.718;7.114;2023-07-02T15:11:58;24.80;88.00
41080;DHT22;26826;50.718;7.114;2023-07-02T15:21:59;24.50;87.80
41080;DHT22;26826;50.718;7.114;2023-07-02T15:31:59;25.30;88.30
41080;DHT22;26826;50.718;7.114;2023-07-02T15:42:00;25.60;86.80
41080;DHT22;26826;50.718;7.114;2023-07-02T15:52:00;26.40;85.60
41080;DHT22;26826;50.718;7.114;2023-07-02T16:02:01;26.20;85.10
41080;DHT22;26826;50.718;7.114;2023-07-02T16:12:01;24.60;86.50
41080;DHT22;26826;50.718;7.114;2023-07-02T16:22:02;24.90;86.00
41080;DHT22;26826;50.718;7.114;2023-07-02T16:32:04;25.50;86.20
41080;DHT22;26826;50.718;7.114;2023-07-02T16:42:05;25.30;86.40
41080;DHT22;26826;50.718;7.114;2023-07-02T16:52:06;25.00;87.70
41080;DHT22;26826;50.718;7.114;2023-07-02T17:02:08;24.40;86.40
41080;DHT22;26826;50.718;7.114;2023-07-02T17:12:11;23.80;88.10
41080;DHT22;26826;50.718;7.114;2023-07-02T17:22:22;23.60;89.50
41080;DHT22;26826;50.718;7.114;2023-07-02T17:32:24;23.40;90.00
41080;DHT22;26826;50.718;7.114;2023-07-02T17:42:24;23.00;90.80
41080;DHT22;26826;50.718;7.114;2023-07-02T17:52:25;22.90;90.70
41080;DHT22;26826;50.718;7.114;2023-07-02T18:02:25;22.90;90.90
41080;DHT22;26826;50.718;7.114;2023-07-02T18:12:26;22.70;91.50
41080;DHT22;26826;50.718;7.114;2023-07-02T18:22:28;22.60;91.70
41080;DHT22;26826;50.718;7.114;2023-07-02T18:32:29;22.50;91.70
41080;DHT22;26826;50.718;7.114;2023-07-02T18:42:30;22.30;92.50
41080;DHT22;26826;50.718;7.114;2023-07-02T18:52:31;22.20;92.40
41080;DHT22;26826;50.718;7.114;2023-07-02T19:02:32;22.00;93.00
41080;DHT22;26826;50.718;7.114;2023-07-02T19:12:33;21.80;93.40
41080;DHT22;26826;50.718;7.114;2023-07-02T19:22:33;21.60;93.80
41080;DHT22;26826;50.718;7.114;2023-07-02T19:32:34;21.30;94.50
41080;DHT22;26826;50.718;7.114;2023-07-02T19:42:37;21.20;95.10
41080;DHT22;26826;50.718;7.114;2023-07-02T19:52:37;21.00;95.20
41080;DHT22;26826;50.718;7.114;2023-07-02T20:02:38;20.80;95.10
41080;DHT22;26826;50.718;7.114;2023-07-02T20:12:40;20.70;94.80
41080;DHT22;26826;50.718;7.114;2023-07-02T20:22:41;20.70;94.60
41080;DHT22;26826;50.718;7.114;2023-07-02T20:32:43;20.60;94.70
41080;DHT22;26826;50.718;7.114;2023-07-02T20:42:44;20.50;94.30
41080;DHT22;26826;50.718;7.114;2023-07-02T20:52:44;20.40;94.60
41080;DHT22;26826;50.718;7.114;2023-07-02T21:02:45;20.30;95.30
41080;DHT22;26826;50.718;7.114;2023-07-02T21:12:45;19.90;96.50
41080;DHT22;26826;50.718;7.114;2023-07-02T21:22:47;19.70;96.80
41080;DHT22;26826;50.718;7.114;2023-07-02T21:32:49;19.70;97.20
41080;DHT22;26826;50.718;7.114;2023-07-02T21:42:49;19.60;97.60
41080;DHT22;26826;50.718;7.114;2023-07-02T21:52:50;19.50;98.50
41080;DHT22;26826;50.718;7.114;2023-07-02T22:02:50;19.20;99.10
41080;DHT22;26826;50.718;7.114;2023-07-02T22:12:50;19.00;99.10
41080;DHT22;26826;50.718;7.114;2023-07-02T22:22:51;18.70;97.50
41080;DHT22;26826;50.718;7.114;2023-07-02T22:32:51;18.30;95.70
41080;DHT22;26826;50.718;7.114;2023-07-02T22:42:52;18.10;95.70
41080;DHT22;26826;50.718;7.114;2023-07-02T22:52:53;17.70;96.30
41080;DHT22;26826;50.718;7.114;2023-07-02T23:02:53;17.50;96.70
41080;DHT22;26826;50.718;7.114;2023-07-02T23:12:54;17.20;97.70
41080;DHT22;26826;50.718;7.114;2023-07-02T23:22:54;17.00;98.00
41080;DHT22;26826;50.718;7.114;2023-07-02T23:32:55;16.90;98.30
41080;DHT22;26826;50.718;7.114;2023-07-02T23:42:55;16.80;98.80
41080;DHT22;26826;50.718;7.114;2023-07-02T23:52:56;16.90;98.70
